首页
METAR-TAF:

METAR-TAF

机场 :

McCall Municipal Airport

McCall, 爱达荷州, 美国

纬度: 44-53-00N, 经度: 116-05-58W, 海拔: 1530米

当前天气观测

该预报发布于27分钟前的17:51 UTC
静风
温度 -5°C
湿度 79%
气压 1017 hPa
能見度: 16.1公里
阴天层高于5500英尺

METAR: KMYL 231751Z AUTO 00000KT 10SM OVC055 M05/M08 A3002 RMK AO2 SLP214 T10501078 11050 21128 50003

时间: 11:18 (18:18 UTC)

预报

该预报发布于58分钟前的17:20 UTC
预报有效从23日的 18点(UTC)到 24日的 18点(UTC)
风速3节,风向多变
能見度: 10公里
阴天层高于6000英尺
从 23日的 2000点(UTC)
风速10节,风向
能見度: 10公里
阴天层高于4000英尺
附近有阵雨
从 23日的 2200点(UTC)
风速10节,风向西转西南
能見度: 8.0公里
阴天层高于2500英尺
小阵雪
短暂存在
从 23日的 22点(UTC)到 24日的 01点(UTC)
风速15节,风向西转西南,有时为25节阵风
能見度: 3.2公里
多云层高于1000英尺
阴天层高于2000英尺
小阵雪
从 24日的 0600点(UTC)
风速8节,风向西
能見度: 10公里
阴天层高于4000英尺
附近有阵雨
从 24日的 1000点(UTC)
风速4节,风向多变
能見度: 10公里
散云层高于5000英尺

TAF: KMYL 231720Z 2318/2418 VRB03KT P6SM OVC060 FM232000 17010KT P6SM VCSH OVC040 FM232200 24010KT 5SM -SHSN OVC025 TEMPO 2322/2401 25015G25KT 2SM -SHSN BKN010 OVC020 FM240600 28008KT P6SM VCSH OVC040 FM241000 VRB04KT P6SM SCT050

超过4000个机场的气象观测和天气预报(METAR&TAF报告)。

可查询的气象台以黄色和红色小点在地图上表示。

将鼠标移到小点上方,可查看气象台名称。

然后点击查看天气观测和预报。

如需切换地图:点击带黑十字的绿色按钮放大地图;点击带横线的绿色按钮缩小地图;或者点击绿色箭头查看邻近地区的地图。


METAR-TAF: